BQN weather

Rafael Hernandez Airport
Aguadilla, Puerto Rico

Public forecast

Using degrees Celsius for public forecast. Weather courtesy of forecast.io.

METAR (pilot weather report)

Report is more than 6 hours old.

Retrieved 2019/06/18 00:50 UTC (9 hours ago):

TJBQ 180050Z 10014G17KT 10SM BKN013 BKN043 27/25 A3011

TAF (pilot weather forecast)

Retrieved 2019/06/18 06:24 UTC (4 hours ago):

TAF TJBQ 180520Z 1806/1906 10014KT P6SM VCSH SCT025 FM181400 07015G22KT P6SM FEW025 FM181800 07018G26KT P6SM VCSH SCT025 FM182200 09010KT P6SM SCT025 FM190300 10012KT P6SM FEW030 AMD NOT SKED TIL 181100